sensor_id;sensor_type;location;lat;lon;timestamp;noise_LAeq;noise_LA_min;noise_LA_max;noise_LA01;noise_LA95
52872;Laerm;40124;52.198;9.902;2022-08-19T00:02:38;41.21;34.31;46.71;;
52872;Laerm;40124;52.198;9.902;2022-08-19T00:08:06;59.92;35.04;80.25;;
52872;Laerm;40124;52.198;9.902;2022-08-19T00:10:31;41.39;35.04;46.50;;
52872;Laerm;40124;52.198;9.902;2022-08-19T00:13:05;58.38;36.91;78.35;;
52872;Laerm;40124;52.198;9.902;2022-08-19T00:15:31;41.55;36.69;46.62;;
52872;Laerm;40124;52.198;9.902;2022-08-19T00:17:56;43.43;35.36;51.28;;
52872;Laerm;40124;52.198;9.902;2022-08-19T00:27:01;41.74;37.70;46.78;;
52872;Laerm;40124;52.198;9.902;2022-08-19T00:32:27;57.80;35.36;80.32;;
52872;Laerm;40124;52.198;9.902;2022-08-19T00:38:01;41.79;34.69;46.40;;
52872;Laerm;40124;52.198;9.902;2022-08-19T00:40:27;41.83;35.04;47.20;;
52872;Laerm;40124;52.198;9.902;2022-08-19T00:42:52;41.72;37.88;47.96;;
52872;Laerm;40124;52.198;9.902;2022-08-19T00:45:22;43.22;36.69;56.25;;
52872;Laerm;40124;52.198;9.902;2022-08-19T00:48:17;56.23;37.88;76.50;;
52872;Laerm;40124;52.198;9.902;2022-08-19T00:50:42;59.58;37.52;78.11;;
52872;Laerm;40124;52.198;9.902;2022-08-19T00:53:12;41.15;34.31;48.98;;
52872;Laerm;40124;52.198;9.902;2022-08-19T00:55:42;40.89;34.69;46.30;;
52872;Laerm;40124;52.198;9.902;2022-08-19T00:58:13;42.57;34.69;48.13;;
52872;Laerm;40124;52.198;9.902;2022-08-19T01:01:00;41.22;34.69;48.31;;
52872;Laerm;40124;52.198;9.902;2022-08-19T01:06:02;42.79;36.91;54.15;;
52872;Laerm;40124;52.198;9.902;2022-08-19T01:08:27;45.58;37.88;61.05;;
52872;Laerm;40124;52.198;9.902;2022-08-19T01:10:54;42.83;37.53;50.60;;
52872;Laerm;40124;52.198;9.902;2022-08-19T01:13:21;40.97;36.69;50.35;;
52872;Laerm;40124;52.198;9.902;2022-08-19T01:15:59;40.70;35.04;51.75;;
52872;Laerm;40124;52.198;9.902;2022-08-19T01:21:47;41.91;36.20;64.32;;
52872;Laerm;40124;52.198;9.902;2022-08-19T01:24:15;68.05;38.05;87.63;;
52872;Laerm;40124;52.198;9.902;2022-08-19T01:26:41;57.51;37.12;79.68;;
52872;Laerm;40124;52.198;9.902;2022-08-19T01:29:08;41.31;36.45;47.96;;
52872;Laerm;40124;52.198;9.902;2022-08-19T01:31:34;45.17;37.12;57.38;;
52872;Laerm;40124;52.198;9.902;2022-08-19T01:34:00;44.40;37.70;59.69;;
52872;Laerm;40124;52.198;9.902;2022-08-19T01:36:30;41.54;37.32;46.59;;
52872;Laerm;40124;52.198;9.902;2022-08-19T01:38:56;56.97;38.52;75.98;;
52872;Laerm;40124;52.198;9.902;2022-08-19T01:41:23;42.25;38.60;47.02;;
52872;Laerm;40124;52.198;9.902;2022-08-19T01:43:49;66.95;37.52;86.95;;
52872;Laerm;40124;52.198;9.902;2022-08-19T01:46:14;60.54;35.36;78.51;;
52872;Laerm;40124;52.198;9.902;2022-08-19T01:48:40;53.57;38.21;73.85;;
52872;Laerm;40124;52.198;9.902;2022-08-19T01:51:06;57.08;37.88;77.75;;
52872;Laerm;40124;52.198;9.902;2022-08-19T01:53:32;51.78;35.66;69.64;;
52872;Laerm;40124;52.198;9.902;2022-08-19T01:55:57;57.58;36.45;78.00;;
52872;Laerm;40124;52.198;9.902;2022-08-19T01:58:24;55.47;37.12;74.19;;
52872;Laerm;40124;52.198;9.902;2022-08-19T02:00:51;64.84;38.05;83.23;;
52872;Laerm;40124;52.198;9.902;2022-08-19T02:03:17;41.61;36.45;60.48;;
52872;Laerm;40124;52.198;9.902;2022-08-19T02:09:08;45.84;36.91;58.80;;
52872;Laerm;40124;52.198;9.902;2022-08-19T02:11:35;41.75;37.52;46.71;;
52872;Laerm;40124;52.198;9.902;2022-08-19T02:17:03;45.00;37.52;58.64;;
52872;Laerm;40124;52.198;9.902;2022-08-19T02:19:29;55.45;38.95;74.51;;
52872;Laerm;40124;52.198;9.902;2022-08-19T02:27:53;41.53;37.12;50.91;;
52872;Laerm;40124;52.198;9.902;2022-08-19T02:30:26;56.52;36.69;76.40;;
52872;Laerm;40124;52.198;9.902;2022-08-19T02:32:52;41.40;37.32;47.86;;
52872;Laerm;40124;52.198;9.902;2022-08-19T02:35:30;62.41;37.35;80.79;;
52872;Laerm;40124;52.198;9.902;2022-08-19T02:38:14;54.39;36.20;73.35;;
52872;Laerm;40124;52.198;9.902;2022-08-19T02:40:53;66.20;37.70;86.21;;
52872;Laerm;40124;52.198;9.902;2022-08-19T02:49:49;64.11;37.12;84.88;;
52872;Laerm;40124;52.198;9.902;2022-08-19T02:52:17;56.05;37.52;76.05;;
52872;Laerm;40124;52.198;9.902;2022-08-19T02:54:42;66.57;38.52;83.45;;
52872;Laerm;40124;52.198;9.902;2022-08-19T03:02:58;55.54;38.81;74.97;;
52872;Laerm;40124;52.198;9.902;2022-08-19T03:05:23;59.97;40.23;77.67;;
52872;Laerm;40124;52.198;9.902;2022-08-19T03:08:05;63.06;39.34;80.21;;
52872;Laerm;40124;52.198;9.902;2022-08-19T03:10:31;63.31;40.03;78.28;;
52872;Laerm;40124;52.198;9.902;2022-08-19T03:12:56;62.42;39.34;78.13;;
52872;Laerm;40124;52.198;9.902;2022-08-19T03:15:25;61.34;40.03;78.33;;
52872;Laerm;40124;52.198;9.902;2022-08-19T03:17:53;61.66;39.81;78.45;;
52872;Laerm;40124;52.198;9.902;2022-08-19T03:20:28;67.12;41.46;81.84;;
52872;Laerm;40124;52.198;9.902;2022-08-19T03:28:40;66.07;38.52;80.78;;
52872;Laerm;40124;52.198;9.902;2022-08-19T03:46:22;67.42;41.89;81.91;;
52872;Laerm;40124;52.198;9.902;2022-08-19T03:48:48;69.80;42.53;83.82;;
52872;Laerm;40124;52.198;9.902;2022-08-19T03:51:22;63.61;38.52;79.82;;
52872;Laerm;40124;52.198;9.902;2022-08-19T03:53:51;67.20;41.82;82.64;;
52872;Laerm;40124;52.198;9.902;2022-08-19T03:56:16;68.17;42.59;82.86;;
52872;Laerm;40124;52.198;9.902;2022-08-19T03:58:42;65.44;39.81;79.59;;
52872;Laerm;40124;52.198;9.902;2022-08-19T04:01:11;71.50;40.23;88.07;;
52872;Laerm;40124;52.198;9.902;2022-08-19T04:03:44;68.91;42.71;87.31;;
52872;Laerm;40124;52.198;9.902;2022-08-19T04:09:20;64.37;38.95;79.61;;
52872;Laerm;40124;52.198;9.902;2022-08-19T04:14:43;66.96;38.37;86.32;;
52872;Laerm;40124;52.198;9.902;2022-08-19T04:17:08;68.70;41.06;84.27;;
52872;Laerm;40124;52.198;9.902;2022-08-19T04:19:34;68.44;40.33;81.82;;
52872;Laerm;40124;52.198;9.902;2022-08-19T04:21:59;70.33;40.23;86.83;;
52872;Laerm;40124;52.198;9.902;2022-08-19T04:24:25;69.08;40.80;85.50;;
52872;Laerm;40124;52.198;9.902;2022-08-19T04:26:51;67.85;41.82;83.24;;
52872;Laerm;40124;52.198;9.902;2022-08-19T04:29:17;68.60;45.66;82.06;;
52872;Laerm;40124;52.198;9.902;2022-08-19T04:31:56;69.55;46.45;86.23;;
52872;Laerm;40124;52.198;9.902;2022-08-19T04:34:22;68.29;40.62;85.47;;
52872;Laerm;40124;52.198;9.902;2022-08-19T04:37:09;67.68;41.82;82.06;;
52872;Laerm;40124;52.198;9.902;2022-08-19T04:45:29;72.13;46.33;86.99;;
52872;Laerm;40124;52.198;9.902;2022-08-19T04:48:30;69.29;46.73;82.62;;
52872;Laerm;40124;52.198;9.902;2022-08-19T04:50:57;67.13;41.61;79.99;;
52872;Laerm;40124;52.198;9.902;2022-08-19T04:53:23;72.25;43.72;89.39;;
52872;Laerm;40124;52.198;9.902;2022-08-19T04:55:48;68.24;43.44;80.62;;
52872;Laerm;40124;52.198;9.902;2022-08-19T04:58:14;70.08;44.76;83.69;;
52872;Laerm;40124;52.198;9.902;2022-08-19T05:00:41;71.11;52.21;88.92;;
52872;Laerm;40124;52.198;9.902;2022-08-19T05:03:07;68.81;42.71;79.32;;
52872;Laerm;40124;52.198;9.902;2022-08-19T05:05:32;70.52;43.86;86.69;;
52872;Laerm;40124;52.198;9.902;2022-08-19T05:08:09;72.34;50.33;86.79;;
52872;Laerm;40124;52.198;9.902;2022-08-19T05:10:35;70.05;44.76;84.98;;
52872;Laerm;40124;52.198;9.902;2022-08-19T05:13:03;68.95;46.89;82.16;;
52872;Laerm;40124;52.198;9.902;2022-08-19T05:15:29;70.66;42.98;82.38;;
52872;Laerm;40124;52.198;9.902;2022-08-19T05:24:05;70.60;48.18;87.58;;
52872;Laerm;40124;52.198;9.902;2022-08-19T05:26:36;71.54;46.82;89.43;;
52872;Laerm;40124;52.198;9.902;2022-08-19T05:29:01;73.20;42.59;91.08;;
52872;Laerm;40124;52.198;9.902;2022-08-19T05:31:27;71.60;48.77;84.09;;
52872;Laerm;40124;52.198;9.902;2022-08-19T05:36:54;69.11;42.16;80.46;;
52872;Laerm;40124;52.198;9.902;2022-08-19T05:39:22;71.91;49.60;85.79;;
52872;Laerm;40124;52.198;9.902;2022-08-19T05:41:49;69.18;43.24;85.85;;
52872;Laerm;40124;52.198;9.902;2022-08-19T05:44:14;67.28;47.95;82.58;;
52872;Laerm;40124;52.198;9.902;2022-08-19T05:46:42;69.20;41.61;83.55;;
52872;Laerm;40124;52.198;9.902;2022-08-19T05:49:18;70.21;43.72;86.32;;
52872;Laerm;40124;52.198;9.902;2022-08-19T05:51:47;70.68;55.58;84.03;;
52872;Laerm;40124;52.198;9.902;2022-08-19T05:54:12;79.73;44.01;103.05;;
52872;Laerm;40124;52.198;9.902;2022-08-19T05:56:39;69.85;41.89;84.02;;
52872;Laerm;40124;52.198;9.902;2022-08-19T05:59:08;73.65;52.28;90.69;;
52872;Laerm;40124;52.198;9.902;2022-08-19T06:01:39;69.42;46.25;83.74;;
52872;Laerm;40124;52.198;9.902;2022-08-19T06:04:05;68.36;42.53;80.13;;
52872;Laerm;40124;52.198;9.902;2022-08-19T06:06:31;70.30;42.88;87.29;;
52872;Laerm;40124;52.198;9.902;2022-08-19T06:08:59;65.50;43.72;78.39;;
52872;Laerm;40124;52.198;9.902;2022-08-19T06:12:09;67.16;42.82;85.55;;
52872;Laerm;40124;52.198;9.902;2022-08-19T06:17:02;67.19;40.71;79.92;;
52872;Laerm;40124;52.198;9.902;2022-08-19T06:19:28;71.95;41.14;92.01;;
52872;Laerm;40124;52.198;9.902;2022-08-19T06:22:14;67.83;43.94;80.80;;
52872;Laerm;40124;52.198;9.902;2022-08-19T06:24:39;66.77;43.54;80.93;;
52872;Laerm;40124;52.198;9.902;2022-08-19T06:27:10;68.07;44.72;79.26;;
52872;Laerm;40124;52.198;9.902;2022-08-19T06:29:36;68.65;41.61;87.85;;
52872;Laerm;40124;52.198;9.902;2022-08-19T06:35:04;68.03;41.82;79.60;;
52872;Laerm;40124;52.198;9.902;2022-08-19T06:37:30;71.89;43.72;85.85;;
52872;Laerm;40124;52.198;9.902;2022-08-19T06:39:57;71.42;44.47;83.18;;
52872;Laerm;40124;52.198;9.902;2022-08-19T06:45:36;67.59;41.06;84.12;;
52872;Laerm;40124;52.198;9.902;2022-08-19T06:51:16;69.59;44.51;85.50;;
52872;Laerm;40124;52.198;9.902;2022-08-19T06:57:05;64.33;42.59;79.43;;
52872;Laerm;40124;52.198;9.902;2022-08-19T06:59:49;67.10;43.39;78.49;;
52872;Laerm;40124;52.198;9.902;2022-08-19T07:02:35;65.53;40.98;78.38;;
52872;Laerm;40124;52.198;9.902;2022-08-19T07:05:02;65.49;44.58;77.81;;
52872;Laerm;40124;52.198;9.902;2022-08-19T07:07:28;70.58;42.29;84.47;;
52872;Laerm;40124;52.198;9.902;2022-08-19T07:09:53;67.11;43.39;77.42;;
52872;Laerm;40124;52.198;9.902;2022-08-19T07:12:19;67.17;46.07;83.59;;
52872;Laerm;40124;52.198;9.902;2022-08-19T07:14:44;70.14;47.98;88.82;;
52872;Laerm;40124;52.198;9.902;2022-08-19T07:17:20;69.78;45.60;87.18;;
52872;Laerm;40124;52.198;9.902;2022-08-19T07:19:48;65.41;42.59;84.80;;
52872;Laerm;40124;52.198;9.902;2022-08-19T07:25:10;68.58;42.09;84.29;;
52872;Laerm;40124;52.198;9.902;2022-08-19T07:27:37;67.22;42.59;82.89;;
52872;Laerm;40124;52.198;9.902;2022-08-19T07:30:09;72.26;50.85;92.73;;
52872;Laerm;40124;52.198;9.902;2022-08-19T07:32:36;68.64;41.30;85.72;;
52872;Laerm;40124;52.198;9.902;2022-08-19T07:35:22;67.77;49.07;80.87;;
52872;Laerm;40124;52.198;9.902;2022-08-19T07:37:51;67.00;43.99;79.37;;
52872;Laerm;40124;52.198;9.902;2022-08-19T07:40:17;66.66;44.94;79.91;;
52872;Laerm;40124;52.198;9.902;2022-08-19T07:42:43;72.12;45.97;88.79;;
52872;Laerm;40124;52.198;9.902;2022-08-19T07:50:54;64.36;42.93;77.22;;
52872;Laerm;40124;52.198;9.902;2022-08-19T07:53:20;67.99;44.80;80.83;;
52872;Laerm;40124;52.198;9.902;2022-08-19T07:55:51;66.13;39.46;78.26;;
52872;Laerm;40124;52.198;9.902;2022-08-19T07:58:18;68.51;48.36;81.77;;
52872;Laerm;40124;52.198;9.902;2022-08-19T08:00:45;65.80;41.82;76.80;;
52872;Laerm;40124;52.198;9.902;2022-08-19T08:03:33;71.06;43.58;85.37;;
52872;Laerm;40124;52.198;9.902;2022-08-19T08:06:27;64.14;41.22;79.11;;
52872;Laerm;40124;52.198;9.902;2022-08-19T08:12:14;69.24;48.92;84.48;;
52872;Laerm;40124;52.198;9.902;2022-08-19T08:14:42;68.64;43.49;85.02;;
52872;Laerm;40124;52.198;9.902;2022-08-19T08:17:09;64.84;45.27;79.37;;
52872;Laerm;40124;52.198;9.902;2022-08-19T08:19:42;67.03;44.27;81.91;;
52872;Laerm;40124;52.198;9.902;2022-08-19T08:22:07;72.60;45.72;92.28;;
52872;Laerm;40124;52.198;9.902;2022-08-19T08:24:34;72.36;43.90;87.65;;
52872;Laerm;40124;52.198;9.902;2022-08-19T08:27:00;64.64;42.29;77.72;;
52872;Laerm;40124;52.198;9.902;2022-08-19T08:29:32;67.79;46.80;79.64;;
52872;Laerm;40124;52.198;9.902;2022-08-19T08:31:58;69.66;48.13;91.53;;
52872;Laerm;40124;52.198;9.902;2022-08-19T08:34:23;65.23;43.86;77.19;;
52872;Laerm;40124;52.198;9.902;2022-08-19T08:36:49;66.61;44.43;81.65;;
52872;Laerm;40124;52.198;9.902;2022-08-19T08:39:16;70.26;44.19;88.67;;
52872;Laerm;40124;52.198;9.902;2022-08-19T08:41:44;68.22;45.45;84.26;;
52872;Laerm;40124;52.198;9.902;2022-08-19T08:44:23;68.20;44.69;84.83;;
52872;Laerm;40124;52.198;9.902;2022-08-19T08:47:38;68.76;48.66;82.41;;
52872;Laerm;40124;52.198;9.902;2022-08-19T08:49:54;69.56;42.88;83.12;;
52872;Laerm;40124;52.198;9.902;2022-08-19T08:52:22;74.85;44.58;94.15;;
52872;Laerm;40124;52.198;9.902;2022-08-19T08:54:49;67.78;43.99;84.69;;
52872;Laerm;40124;52.198;9.902;2022-08-19T08:57:37;70.49;43.49;87.30;;
52872;Laerm;40124;52.198;9.902;2022-08-19T09:00:49;69.05;43.19;85.63;;
52872;Laerm;40124;52.198;9.902;2022-08-19T09:03:22;67.57;43.90;84.18;;
52872;Laerm;40124;52.198;9.902;2022-08-19T09:06:00;69.25;46.89;81.58;;
52872;Laerm;40124;52.198;9.902;2022-08-19T09:11:41;63.73;42.65;80.15;;
52872;Laerm;40124;52.198;9.902;2022-08-19T09:14:14;66.61;43.49;81.95;;
52872;Laerm;40124;52.198;9.902;2022-08-19T09:16:42;72.38;45.66;89.32;;
52872;Laerm;40124;52.198;9.902;2022-08-19T09:19:07;68.88;44.11;84.56;;
52872;Laerm;40124;52.198;9.902;2022-08-19T09:21:34;67.28;42.76;81.08;;
52872;Laerm;40124;52.198;9.902;2022-08-19T09:24:02;64.50;43.34;78.14;;
52872;Laerm;40124;52.198;9.902;2022-08-19T09:26:29;68.56;48.85;84.24;;
52872;Laerm;40124;52.198;9.902;2022-08-19T09:28:56;68.62;51.11;82.24;;
52872;Laerm;40124;52.198;9.902;2022-08-19T09:31:42;70.01;46.56;87.81;;
52872;Laerm;40124;52.198;9.902;2022-08-19T09:34:07;68.66;46.45;80.54;;
52872;Laerm;40124;52.198;9.902;2022-08-19T09:36:33;64.58;43.29;79.12;;
52872;Laerm;40124;52.198;9.902;2022-08-19T09:39:16;69.35;50.33;82.72;;
52872;Laerm;40124;52.198;9.902;2022-08-19T09:41:41;70.66;42.98;89.77;;
52872;Laerm;40124;52.198;9.902;2022-08-19T09:44:07;75.01;45.39;92.07;;
52872;Laerm;40124;52.198;9.902;2022-08-19T09:46:32;69.17;47.74;79.09;;
52872;Laerm;40124;52.198;9.902;2022-08-19T09:48:58;72.81;48.84;89.58;;
52872;Laerm;40124;52.198;9.902;2022-08-19T09:51:24;71.91;43.34;96.40;;
52872;Laerm;40124;52.198;9.902;2022-08-19T09:54:11;70.15;43.24;84.50;;
52872;Laerm;40124;52.198;9.902;2022-08-19T09:56:36;70.42;46.64;86.34;;
52872;Laerm;40124;52.198;9.902;2022-08-19T09:59:02;66.58;44.15;78.03;;
52872;Laerm;40124;52.198;9.902;2022-08-19T10:01:29;66.27;44.15;77.87;;
52872;Laerm;40124;52.198;9.902;2022-08-19T10:03:55;67.59;45.77;81.10;;
52872;Laerm;40124;52.198;9.902;2022-08-19T10:06:21;67.89;43.24;79.35;;
52872;Laerm;40124;52.198;9.902;2022-08-19T10:08:48;68.53;45.66;83.63;;
52872;Laerm;40124;52.198;9.902;2022-08-19T10:11:13;67.74;44.80;79.82;;
52872;Laerm;40124;52.198;9.902;2022-08-19T10:13:47;67.13;44.35;78.65;;
52872;Laerm;40124;52.198;9.902;2022-08-19T10:16:15;67.38;43.24;83.52;;
52872;Laerm;40124;52.198;9.902;2022-08-19T10:18:42;68.98;43.90;84.85;;
52872;Laerm;40124;52.198;9.902;2022-08-19T10:21:13;67.59;44.83;81.57;;
52872;Laerm;40124;52.198;9.902;2022-08-19T10:23:40;66.33;44.83;78.99;;
52872;Laerm;40124;52.198;9.902;2022-08-19T10:29:12;67.44;44.39;81.67;;
52872;Laerm;40124;52.198;9.902;2022-08-19T10:31:38;70.41;45.11;86.97;;
52872;Laerm;40124;52.198;9.902;2022-08-19T10:34:03;69.56;45.63;80.47;;
52872;Laerm;40124;52.198;9.902;2022-08-19T10:36:30;68.78;51.10;80.81;;
52872;Laerm;40124;52.198;9.902;2022-08-19T10:38:57;68.31;45.04;83.96;;
52872;Laerm;40124;52.198;9.902;2022-08-19T10:41:24;66.24;47.40;80.41;;
52872;Laerm;40124;52.198;9.902;2022-08-19T10:43:51;69.70;46.66;85.90;;
52872;Laerm;40124;52.198;9.902;2022-08-19T10:46:27;66.43;43.63;77.80;;
52872;Laerm;40124;52.198;9.902;2022-08-19T10:48:53;70.88;47.20;85.08;;
52872;Laerm;40124;52.198;9.902;2022-08-19T10:51:18;69.11;50.86;78.71;;
52872;Laerm;40124;52.198;9.902;2022-08-19T10:54:03;71.27;50.62;86.78;;
52872;Laerm;40124;52.198;9.902;2022-08-19T10:56:31;71.09;46.82;91.26;;
52872;Laerm;40124;52.198;9.902;2022-08-19T10:59:21;68.70;47.28;83.39;;
52872;Laerm;40124;52.198;9.902;2022-08-19T11:01:50;69.18;45.30;82.78;;
52872;Laerm;40124;52.198;9.902;2022-08-19T11:04:16;72.38;45.77;87.53;;
52872;Laerm;40124;52.198;9.902;2022-08-19T11:06:42;68.79;48.10;80.87;;
52872;Laerm;40124;52.198;9.902;2022-08-19T11:12:27;69.76;43.94;82.99;;
52872;Laerm;40124;52.198;9.902;2022-08-19T11:14:52;68.43;46.97;78.78;;
52872;Laerm;40124;52.198;9.902;2022-08-19T11:17:18;68.22;43.04;78.64;;
52872;Laerm;40124;52.198;9.902;2022-08-19T11:19:48;69.18;45.69;83.98;;
52872;Laerm;40124;52.198;9.902;2022-08-19T11:22:14;69.43;49.95;82.95;;
52872;Laerm;40124;52.198;9.902;2022-08-19T11:24:39;69.57;45.04;80.40;;
52872;Laerm;40124;52.198;9.902;2022-08-19T11:27:08;72.20;46.84;90.92;;
52872;Laerm;40124;52.198;9.902;2022-08-19T11:29:34;73.09;49.63;91.42;;
52872;Laerm;40124;52.198;9.902;2022-08-19T11:32:07;71.19;47.06;84.17;;
52872;Laerm;40124;52.198;9.902;2022-08-19T11:34:51;73.22;46.86;88.31;;
52872;Laerm;40124;52.198;9.902;2022-08-19T11:37:16;68.99;44.03;85.92;;
52872;Laerm;40124;52.198;9.902;2022-08-19T11:39:47;69.90;46.40;80.79;;
52872;Laerm;40124;52.198;9.902;2022-08-19T11:42:13;68.98;44.62;80.12;;
52872;Laerm;40124;52.198;9.902;2022-08-19T11:44:56;71.79;48.32;88.20;;
52872;Laerm;40124;52.198;9.902;2022-08-19T11:47:22;71.69;51.70;85.23;;
52872;Laerm;40124;52.198;9.902;2022-08-19T11:50:07;71.14;45.51;86.71;;
52872;Laerm;40124;52.198;9.902;2022-08-19T11:52:33;69.19;44.80;81.95;;
52872;Laerm;40124;52.198;9.902;2022-08-19T11:54:58;74.67;48.31;93.70;;
52872;Laerm;40124;52.198;9.902;2022-08-19T11:57:38;67.40;44.87;79.66;;
52872;Laerm;40124;52.198;9.902;2022-08-19T12:00:09;74.41;47.90;98.12;;
52872;Laerm;40124;52.198;9.902;2022-08-19T12:02:39;72.17;44.83;85.08;;
52872;Laerm;40124;52.198;9.902;2022-08-19T12:05:14;70.29;47.52;80.26;;
52872;Laerm;40124;52.198;9.902;2022-08-19T12:07:39;69.33;44.23;83.93;;
52872;Laerm;40124;52.198;9.902;2022-08-19T12:10:05;71.11;46.35;84.08;;
52872;Laerm;40124;52.198;9.902;2022-08-19T12:15:28;67.46;42.76;80.05;;
52872;Laerm;40124;52.198;9.902;2022-08-19T12:17:57;69.65;44.90;79.88;;
52872;Laerm;40124;52.198;9.902;2022-08-19T12:20:23;70.49;47.44;83.66;;
52872;Laerm;40124;52.198;9.902;2022-08-19T12:22:48;70.96;45.66;87.30;;
52872;Laerm;40124;52.198;9.902;2022-08-19T12:25:13;70.98;43.54;85.75;;
52872;Laerm;40124;52.198;9.902;2022-08-19T12:27:39;73.10;44.19;89.80;;
52872;Laerm;40124;52.198;9.902;2022-08-19T12:30:05;68.16;44.73;78.62;;
52872;Laerm;40124;52.198;9.902;2022-08-19T12:32:43;72.75;50.01;86.46;;
52872;Laerm;40124;52.198;9.902;2022-08-19T12:35:27;71.66;43.99;89.05;;
52872;Laerm;40124;52.198;9.902;2022-08-19T12:38:20;72.84;44.51;93.04;;
52872;Laerm;40124;52.198;9.902;2022-08-19T12:41:09;71.04;49.28;84.02;;
52872;Laerm;40124;52.198;9.902;2022-08-19T12:43:35;71.98;47.30;86.67;;
52872;Laerm;40124;52.198;9.902;2022-08-19T12:46:00;70.66;42.74;86.32;;
52872;Laerm;40124;52.198;9.902;2022-08-19T12:48:32;71.15;45.27;88.75;;
52872;Laerm;40124;52.198;9.902;2022-08-19T12:51:17;68.86;45.57;79.22;;
52872;Laerm;40124;52.198;9.902;2022-08-19T12:53:44;70.10;47.67;80.74;;
52872;Laerm;40124;52.198;9.902;2022-08-19T12:56:10;70.91;45.66;85.74;;
52872;Laerm;40124;52.198;9.902;2022-08-19T12:58:51;70.92;47.06;87.62;;
52872;Laerm;40124;52.198;9.902;2022-08-19T13:01:17;69.86;47.55;81.72;;
52872;Laerm;40124;52.198;9.902;2022-08-19T13:03:42;70.48;44.51;81.56;;
52872;Laerm;40124;52.198;9.902;2022-08-19T13:06:08;71.20;52.74;84.21;;
52872;Laerm;40124;52.198;9.902;2022-08-19T13:08:34;70.75;45.83;87.78;;
52872;Laerm;40124;52.198;9.902;2022-08-19T13:11:06;75.60;50.13;96.57;;
52872;Laerm;40124;52.198;9.902;2022-08-19T13:13:31;70.19;50.88;80.93;;
52872;Laerm;40124;52.198;9.902;2022-08-19T13:15:59;69.37;47.16;82.35;;
52872;Laerm;40124;52.198;9.902;2022-08-19T13:18:26;70.48;42.47;84.90;;
52872;Laerm;40124;52.198;9.902;2022-08-19T13:20:51;67.57;43.09;78.86;;
52872;Laerm;40124;52.198;9.902;2022-08-19T13:23:17;68.11;45.91;79.25;;
52872;Laerm;40124;52.198;9.902;2022-08-19T13:25:44;69.49;42.29;84.93;;
52872;Laerm;40124;52.198;9.902;2022-08-19T13:28:23;72.02;46.93;87.11;;
52872;Laerm;40124;52.198;9.902;2022-08-19T13:30:52;67.50;43.77;80.45;;
52872;Laerm;40124;52.198;9.902;2022-08-19T13:33:45;70.16;49.03;83.27;;
52872;Laerm;40124;52.198;9.902;2022-08-19T13:36:56;74.38;43.19;94.68;;
52872;Laerm;40124;52.198;9.902;2022-08-19T13:39:02;68.72;44.54;81.75;;
52872;Laerm;40124;52.198;9.902;2022-08-19T13:41:33;71.31;44.23;85.71;;
52872;Laerm;40124;52.198;9.902;2022-08-19T13:43:59;71.45;47.65;82.00;;
52872;Laerm;40124;52.198;9.902;2022-08-19T13:46:24;70.24;42.98;86.63;;
52872;Laerm;40124;52.198;9.902;2022-08-19T13:48:50;69.91;42.82;83.92;;
52872;Laerm;40124;52.198;9.902;2022-08-19T13:51:15;72.41;44.51;91.49;;
52872;Laerm;40124;52.198;9.902;2022-08-19T13:53:41;68.86;46.69;80.99;;
52872;Laerm;40124;52.198;9.902;2022-08-19T13:56:08;70.54;43.54;88.88;;
52872;Laerm;40124;52.198;9.902;2022-08-19T13:58:34;73.33;48.80;89.59;;
52872;Laerm;40124;52.198;9.902;2022-08-19T14:01:00;66.86;44.43;79.94;;
52872;Laerm;40124;52.198;9.902;2022-08-19T14:03:25;70.74;45.99;85.33;;
52872;Laerm;40124;52.198;9.902;2022-08-19T14:05:51;69.62;45.88;81.85;;
52872;Laerm;40124;52.198;9.902;2022-08-19T14:08:16;69.38;43.81;78.93;;
52872;Laerm;40124;52.198;9.902;2022-08-19T14:10:50;70.74;47.67;85.00;;
52872;Laerm;40124;52.198;9.902;2022-08-19T14:13:17;67.50;44.97;77.46;;
52872;Laerm;40124;52.198;9.902;2022-08-19T14:15:43;73.84;48.08;91.47;;
52872;Laerm;40124;52.198;9.902;2022-08-19T14:18:08;69.45;45.36;82.03;;
52872;Laerm;40124;52.198;9.902;2022-08-19T14:20:34;74.51;45.83;94.46;;
52872;Laerm;40124;52.198;9.902;2022-08-19T14:23:00;72.57;43.39;89.73;;
52872;Laerm;40124;52.198;9.902;2022-08-19T14:25:26;69.97;44.54;80.91;;
52872;Laerm;40124;52.198;9.902;2022-08-19T14:27:51;65.63;45.86;77.51;;
52872;Laerm;40124;52.198;9.902;2022-08-19T14:30:37;69.15;50.27;79.78;;
52872;Laerm;40124;52.198;9.902;2022-08-19T14:33:03;68.89;47.55;81.42;;
52872;Laerm;40124;52.198;9.902;2022-08-19T14:35:30;68.79;43.54;85.10;;
52872;Laerm;40124;52.198;9.902;2022-08-19T14:37:58;72.16;43.04;89.76;;
52872;Laerm;40124;52.198;9.902;2022-08-19T14:40:24;70.23;42.41;84.87;;
52872;Laerm;40124;52.198;9.902;2022-08-19T14:42:53;72.41;49.20;89.05;;
52872;Laerm;40124;52.198;9.902;2022-08-19T14:45:25;69.31;38.95;82.33;;
52872;Laerm;40124;52.198;9.902;2022-08-19T14:47:50;67.90;43.72;79.05;;
52872;Laerm;40124;52.198;9.902;2022-08-19T14:50:15;71.12;43.04;85.97;;
52872;Laerm;40124;52.198;9.902;2022-08-19T14:52:41;69.85;50.78;78.98;;
52872;Laerm;40124;52.198;9.902;2022-08-19T14:55:08;71.28;50.01;85.18;;
52872;Laerm;40124;52.198;9.902;2022-08-19T14:57:33;69.33;43.34;79.00;;
52872;Laerm;40124;52.198;9.902;2022-08-19T14:59:58;68.29;45.27;80.06;;
52872;Laerm;40124;52.198;9.902;2022-08-19T15:08:29;69.57;44.15;82.27;;
52872;Laerm;40124;52.198;9.902;2022-08-19T15:11:17;65.91;44.62;78.65;;
52872;Laerm;40124;52.198;9.902;2022-08-19T15:13:41;69.58;47.77;81.79;;
52872;Laerm;40124;52.198;9.902;2022-08-19T15:16:13;69.02;46.61;79.78;;
52872;Laerm;40124;52.198;9.902;2022-08-19T15:18:51;67.50;43.54;81.25;;
52872;Laerm;40124;52.198;9.902;2022-08-19T15:21:37;69.92;45.69;86.91;;
52872;Laerm;40124;52.198;9.902;2022-08-19T15:24:03;69.71;50.23;82.99;;
52872;Laerm;40124;52.198;9.902;2022-08-19T15:26:34;68.63;47.83;79.65;;
52872;Laerm;40124;52.198;9.902;2022-08-19T15:29:13;67.60;41.75;80.80;;
52872;Laerm;40124;52.198;9.902;2022-08-19T15:31:40;67.77;43.29;82.91;;
52872;Laerm;40124;52.198;9.902;2022-08-19T15:34:06;67.74;44.76;78.28;;
52872;Laerm;40124;52.198;9.902;2022-08-19T15:39:34;68.18;43.04;80.66;;
52872;Laerm;40124;52.198;9.902;2022-08-19T15:41:59;68.65;45.51;81.84;;
52872;Laerm;40124;52.198;9.902;2022-08-19T15:44:25;67.44;44.31;81.35;;
52872;Laerm;40124;52.198;9.902;2022-08-19T15:47:00;71.32;44.31;86.55;;
52872;Laerm;40124;52.198;9.902;2022-08-19T15:49:28;71.75;50.70;86.63;;
52872;Laerm;40124;52.198;9.902;2022-08-19T15:51:53;71.36;48.18;86.96;;
52872;Laerm;40124;52.198;9.902;2022-08-19T15:54:21;70.39;49.52;82.29;;
52872;Laerm;40124;52.198;9.902;2022-08-19T15:56:47;69.30;44.79;79.67;;
52872;Laerm;40124;52.198;9.902;2022-08-19T15:59:35;69.87;47.02;84.13;;
52872;Laerm;40124;52.198;9.902;2022-08-19T16:02:20;68.89;47.28;81.39;;
52872;Laerm;40124;52.198;9.902;2022-08-19T16:05:11;65.92;43.94;78.98;;
52872;Laerm;40124;52.198;9.902;2022-08-19T16:08:04;66.98;43.14;79.51;;
52872;Laerm;40124;52.198;9.902;2022-08-19T16:10:30;72.75;47.34;90.76;;
52872;Laerm;40124;52.198;9.902;2022-08-19T16:12:56;66.13;46.13;79.11;;
52872;Laerm;40124;52.198;9.902;2022-08-19T16:15:25;71.37;45.01;89.94;;
52872;Laerm;40124;52.198;9.902;2022-08-19T16:18:00;68.22;45.01;79.08;;